sensor_id;sensor_type;location;lat;lon;timestamp;temperature;humidity
15959;DHT22;8078;47.822;9.402;2023-03-11T00:00:32;1.30;99.90
15959;DHT22;8078;47.822;9.402;2023-03-11T00:03:00;1.30;99.90
15959;DHT22;8078;47.822;9.402;2023-03-11T00:05:37;1.30;99.90
15959;DHT22;8078;47.822;9.402;2023-03-11T00:08:05;1.30;99.90
15959;DHT22;8078;47.822;9.402;2023-03-11T00:10:34;1.20;99.90
15959;DHT22;8078;47.822;9.402;2023-03-11T00:13:00;1.30;99.90
15959;DHT22;8078;47.822;9.402;2023-03-11T00:15:27;1.30;99.90
15959;DHT22;8078;47.822;9.402;2023-03-11T00:17:53;1.20;99.90
15959;DHT22;8078;47.822;9.402;2023-03-11T00:20:31;1.20;99.90
15959;DHT22;8078;47.822;9.402;2023-03-11T00:22:58;1.20;99.90
15959;DHT22;8078;47.822;9.402;2023-03-11T00:25:26;1.10;99.90
15959;DHT22;8078;47.822;9.402;2023-03-11T00:27:52;1.20;99.90
15959;DHT22;8078;47.822;9.402;2023-03-11T00:30:19;1.10;99.90
15959;DHT22;8078;47.822;9.402;2023-03-11T00:32:47;1.10;99.90
15959;DHT22;8078;47.822;9.402;2023-03-11T00:35:16;1.10;99.90
15959;DHT22;8078;47.822;9.402;2023-03-11T00:37:43;1.10;99.90
15959;DHT22;8078;47.822;9.402;2023-03-11T00:40:15;1.10;99.90
15959;DHT22;8078;47.822;9.402;2023-03-11T00:42:40;1.00;99.90
15959;DHT22;8078;47.822;9.402;2023-03-11T00:45:09;1.00;99.90
15959;DHT22;8078;47.822;9.402;2023-03-11T00:47:35;1.00;99.90
15959;DHT22;8078;47.822;9.402;2023-03-11T00:50:00;1.00;99.90
15959;DHT22;8078;47.822;9.402;2023-03-11T00:52:26;1.00;99.90
15959;DHT22;8078;47.822;9.402;2023-03-11T00:54:53;1.00;99.90
15959;DHT22;8078;47.822;9.402;2023-03-11T00:57:19;1.00;99.90
15959;DHT22;8078;47.822;9.402;2023-03-11T00:59:44;1.00;99.90
15959;DHT22;8078;47.822;9.402;2023-03-11T01:02:10;1.00;99.90
15959;DHT22;8078;47.822;9.402;2023-03-11T01:04:35;1.00;99.90
15959;DHT22;8078;47.822;9.402;2023-03-11T01:07:01;0.90;99.90
15959;DHT22;8078;47.822;9.402;2023-03-11T01:09:27;0.90;99.90
15959;DHT22;8078;47.822;9.402;2023-03-11T01:11:52;0.90;99.90
15959;DHT22;8078;47.822;9.402;2023-03-11T01:14:18;0.90;99.90
15959;DHT22;8078;47.822;9.402;2023-03-11T01:16:44;0.90;99.90
15959;DHT22;8078;47.822;9.402;2023-03-11T01:19:10;0.90;99.90
15959;DHT22;8078;47.822;9.402;2023-03-11T01:21:36;0.90;99.90
15959;DHT22;8078;47.822;9.402;2023-03-11T01:24:02;1.00;99.90
15959;DHT22;8078;47.822;9.402;2023-03-11T01:26:27;0.90;99.90
15959;DHT22;8078;47.822;9.402;2023-03-11T01:28:53;0.90;99.90
15959;DHT22;8078;47.822;9.402;2023-03-11T01:31:19;0.90;99.90
15959;DHT22;8078;47.822;9.402;2023-03-11T01:33:44;0.80;99.90
15959;DHT22;8078;47.822;9.402;2023-03-11T01:36:10;0.80;99.90
15959;DHT22;8078;47.822;9.402;2023-03-11T01:38:35;0.80;99.90
15959;DHT22;8078;47.822;9.402;2023-03-11T01:41:01;0.80;99.90
15959;DHT22;8078;47.822;9.402;2023-03-11T01:43:44;0.70;99.90
15959;DHT22;8078;47.822;9.402;2023-03-11T01:46:18;0.70;99.90
15959;DHT22;8078;47.822;9.402;2023-03-11T01:48:55;0.80;99.90
15959;DHT22;8078;47.822;9.402;2023-03-11T01:53:51;0.70;99.90
15959;DHT22;8078;47.822;9.402;2023-03-11T01:56:18;0.70;99.90
15959;DHT22;8078;47.822;9.402;2023-03-11T01:58:45;0.80;99.90
15959;DHT22;8078;47.822;9.402;2023-03-11T02:01:14;0.80;99.90
15959;DHT22;8078;47.822;9.402;2023-03-11T02:03:41;0.70;99.90
15959;DHT22;8078;47.822;9.402;2023-03-11T02:06:10;0.70;99.90
15959;DHT22;8078;47.822;9.402;2023-03-11T02:08:37;0.80;99.90
15959;DHT22;8078;47.822;9.402;2023-03-11T02:11:05;0.80;99.90
15959;DHT22;8078;47.822;9.402;2023-03-11T02:13:33;0.70;99.90
15959;DHT22;8078;47.822;9.402;2023-03-11T02:16:00;0.70;99.90
15959;DHT22;8078;47.822;9.402;2023-03-11T02:18:26;0.80;99.90
15959;DHT22;8078;47.822;9.402;2023-03-11T02:21:23;0.70;99.90
15959;DHT22;8078;47.822;9.402;2023-03-11T02:24:18;0.70;99.90
15959;DHT22;8078;47.822;9.402;2023-03-11T02:27:02;0.70;99.90
15959;DHT22;8078;47.822;9.402;2023-03-11T02:29:28;0.70;99.90
15959;DHT22;8078;47.822;9.402;2023-03-11T02:31:58;0.70;99.90
15959;DHT22;8078;47.822;9.402;2023-03-11T02:34:28;0.70;99.90
15959;DHT22;8078;47.822;9.402;2023-03-11T02:36:54;0.60;99.90
15959;DHT22;8078;47.822;9.402;2023-03-11T02:39:34;0.60;99.90
15959;DHT22;8078;47.822;9.402;2023-03-11T02:42:03;0.60;99.90
15959;DHT22;8078;47.822;9.402;2023-03-11T02:44:30;0.60;99.90
15959;DHT22;8078;47.822;9.402;2023-03-11T02:46:56;0.60;99.90
15959;DHT22;8078;47.822;9.402;2023-03-11T02:49:22;0.60;99.90
15959;DHT22;8078;47.822;9.402;2023-03-11T02:51:48;0.50;99.90
15959;DHT22;8078;47.822;9.402;2023-03-11T02:54:13;0.50;99.90
15959;DHT22;8078;47.822;9.402;2023-03-11T02:56:39;0.50;99.90
15959;DHT22;8078;47.822;9.402;2023-03-11T02:59:05;0.50;99.90
15959;DHT22;8078;47.822;9.402;2023-03-11T03:01:30;0.60;99.90
15959;DHT22;8078;47.822;9.402;2023-03-11T03:03:56;0.60;99.90
15959;DHT22;8078;47.822;9.402;2023-03-11T03:06:22;0.60;99.90
15959;DHT22;8078;47.822;9.402;2023-03-11T03:08:49;0.60;99.90
15959;DHT22;8078;47.822;9.402;2023-03-11T03:11:15;0.60;99.90
15959;DHT22;8078;47.822;9.402;2023-03-11T03:13:40;0.60;99.90
15959;DHT22;8078;47.822;9.402;2023-03-11T03:16:06;0.50;99.90
15959;DHT22;8078;47.822;9.402;2023-03-11T03:18:31;0.50;99.90
15959;DHT22;8078;47.822;9.402;2023-03-11T03:20:57;0.60;99.90
15959;DHT22;8078;47.822;9.402;2023-03-11T03:23:22;0.50;99.90
15959;DHT22;8078;47.822;9.402;2023-03-11T03:25:48;0.50;99.90
15959;DHT22;8078;47.822;9.402;2023-03-11T03:28:14;0.50;99.90
15959;DHT22;8078;47.822;9.402;2023-03-11T03:30:40;0.50;99.90
15959;DHT22;8078;47.822;9.402;2023-03-11T03:33:06;0.50;99.90
15959;DHT22;8078;47.822;9.402;2023-03-11T03:35:32;0.50;99.90
15959;DHT22;8078;47.822;9.402;2023-03-11T03:37:58;0.50;99.90
15959;DHT22;8078;47.822;9.402;2023-03-11T03:40:23;0.40;99.90
15959;DHT22;8078;47.822;9.402;2023-03-11T03:42:49;0.50;99.90
15959;DHT22;8078;47.822;9.402;2023-03-11T03:45:14;0.40;99.90
15959;DHT22;8078;47.822;9.402;2023-03-11T03:47:40;0.40;99.90
15959;DHT22;8078;47.822;9.402;2023-03-11T03:50:08;0.40;99.90
15959;DHT22;8078;47.822;9.402;2023-03-11T03:52:34;0.40;99.90
15959;DHT22;8078;47.822;9.402;2023-03-11T03:55:00;0.40;99.90
15959;DHT22;8078;47.822;9.402;2023-03-11T03:57:28;0.40;99.90
15959;DHT22;8078;47.822;9.402;2023-03-11T03:59:53;0.40;99.90
15959;DHT22;8078;47.822;9.402;2023-03-11T04:02:19;0.40;99.90
15959;DHT22;8078;47.822;9.402;2023-03-11T04:04:45;0.40;99.90
15959;DHT22;8078;47.822;9.402;2023-03-11T04:07:11;0.40;99.90
15959;DHT22;8078;47.822;9.402;2023-03-11T04:09:41;0.40;99.90
15959;DHT22;8078;47.822;9.402;2023-03-11T04:12:09;0.40;99.90
15959;DHT22;8078;47.822;9.402;2023-03-11T04:14:36;0.30;99.90
15959;DHT22;8078;47.822;9.402;2023-03-11T04:17:02;0.40;99.90
15959;DHT22;8078;47.822;9.402;2023-03-11T04:19:27;0.40;99.90
15959;DHT22;8078;47.822;9.402;2023-03-11T04:21:53;0.40;99.90
15959;DHT22;8078;47.822;9.402;2023-03-11T04:24:18;0.40;99.90
15959;DHT22;8078;47.822;9.402;2023-03-11T04:26:44;0.40;99.90
15959;DHT22;8078;47.822;9.402;2023-03-11T04:29:10;0.40;99.90
15959;DHT22;8078;47.822;9.402;2023-03-11T04:31:35;0.30;99.90
15959;DHT22;8078;47.822;9.402;2023-03-11T04:34:01;0.30;99.90
15959;DHT22;8078;47.822;9.402;2023-03-11T04:36:27;0.20;99.90
15959;DHT22;8078;47.822;9.402;2023-03-11T04:38:52;0.20;99.90
15959;DHT22;8078;47.822;9.402;2023-03-11T04:41:19;0.20;99.90
15959;DHT22;8078;47.822;9.402;2023-03-11T04:43:45;0.10;99.90
15959;DHT22;8078;47.822;9.402;2023-03-11T04:46:10;0.10;99.90
15959;DHT22;8078;47.822;9.402;2023-03-11T04:48:36;0.00;99.90
15959;DHT22;8078;47.822;9.402;2023-03-11T04:51:01;0.00;99.90
15959;DHT22;8078;47.822;9.402;2023-03-11T04:53:27;0.10;99.90
15959;DHT22;8078;47.822;9.402;2023-03-11T04:55:52;0.10;99.90
15959;DHT22;8078;47.822;9.402;2023-03-11T04:58:19;-0.10;99.90
15959;DHT22;8078;47.822;9.402;2023-03-11T05:00:44;0.00;99.90
15959;DHT22;8078;47.822;9.402;2023-03-11T05:03:10;-0.10;99.90
15959;DHT22;8078;47.822;9.402;2023-03-11T05:05:36;0.00;99.90
15959;DHT22;8078;47.822;9.402;2023-03-11T05:08:02;-0.10;99.90
15959;DHT22;8078;47.822;9.402;2023-03-11T05:10:28;0.00;99.90
15959;DHT22;8078;47.822;9.402;2023-03-11T05:12:53;-0.10;99.90
15959;DHT22;8078;47.822;9.402;2023-03-11T05:15:19;-0.10;99.90
15959;DHT22;8078;47.822;9.402;2023-03-11T05:17:44;-0.10;99.90
15959;DHT22;8078;47.822;9.402;2023-03-11T05:20:10;-0.10;99.90
15959;DHT22;8078;47.822;9.402;2023-03-11T05:22:36;-0.20;99.90
15959;DHT22;8078;47.822;9.402;2023-03-11T05:25:03;-0.20;99.90
15959;DHT22;8078;47.822;9.402;2023-03-11T05:27:29;-0.20;99.90
15959;DHT22;8078;47.822;9.402;2023-03-11T05:29:54;-0.30;99.90
15959;DHT22;8078;47.822;9.402;2023-03-11T05:32:20;-0.30;99.90
15959;DHT22;8078;47.822;9.402;2023-03-11T05:34:46;-0.20;99.90
15959;DHT22;8078;47.822;9.402;2023-03-11T05:37:12;-0.20;99.90
15959;DHT22;8078;47.822;9.402;2023-03-11T05:39:40;-0.20;99.90
15959;DHT22;8078;47.822;9.402;2023-03-11T05:42:07;-0.30;99.90
15959;DHT22;8078;47.822;9.402;2023-03-11T05:44:33;-0.30;99.90
15959;DHT22;8078;47.822;9.402;2023-03-11T05:46:59;-0.30;99.90
15959;DHT22;8078;47.822;9.402;2023-03-11T05:49:25;-0.30;99.90
15959;DHT22;8078;47.822;9.402;2023-03-11T05:51:50;-0.30;99.90
15959;DHT22;8078;47.822;9.402;2023-03-11T05:54:16;-0.40;99.90
15959;DHT22;8078;47.822;9.402;2023-03-11T05:56:45;-0.40;99.90
15959;DHT22;8078;47.822;9.402;2023-03-11T05:59:13;-0.40;99.90
15959;DHT22;8078;47.822;9.402;2023-03-11T06:01:39;-0.40;99.90
15959;DHT22;8078;47.822;9.402;2023-03-11T06:04:05;-0.50;99.90
15959;DHT22;8078;47.822;9.402;2023-03-11T06:06:31;-0.50;99.90
15959;DHT22;8078;47.822;9.402;2023-03-11T06:08:57;-0.60;99.90
15959;DHT22;8078;47.822;9.402;2023-03-11T06:11:23;-0.60;99.90
15959;DHT22;8078;47.822;9.402;2023-03-11T06:13:54;-0.60;99.90
15959;DHT22;8078;47.822;9.402;2023-03-11T06:16:21;-0.60;99.90
15959;DHT22;8078;47.822;9.402;2023-03-11T06:18:46;-0.70;99.90
15959;DHT22;8078;47.822;9.402;2023-03-11T06:21:16;-0.70;99.90
15959;DHT22;8078;47.822;9.402;2023-03-11T06:23:42;-0.80;99.90
15959;DHT22;8078;47.822;9.402;2023-03-11T06:26:09;-0.70;99.90
15959;DHT22;8078;47.822;9.402;2023-03-11T06:28:36;-0.80;99.90
15959;DHT22;8078;47.822;9.402;2023-03-11T06:31:07;-0.70;99.90
15959;DHT22;8078;47.822;9.402;2023-03-11T06:33:32;-0.80;99.90
15959;DHT22;8078;47.822;9.402;2023-03-11T06:35:59;-0.70;99.90
15959;DHT22;8078;47.822;9.402;2023-03-11T06:38:26;-0.80;99.90
15959;DHT22;8078;47.822;9.402;2023-03-11T06:40:52;-0.70;99.90
15959;DHT22;8078;47.822;9.402;2023-03-11T06:43:18;-0.70;99.90
15959;DHT22;8078;47.822;9.402;2023-03-11T06:45:44;-0.70;99.90
15959;DHT22;8078;47.822;9.402;2023-03-11T06:48:10;-0.70;99.90
15959;DHT22;8078;47.822;9.402;2023-03-11T06:50:36;-0.60;99.90
15959;DHT22;8078;47.822;9.402;2023-03-11T06:53:01;-0.60;99.90
15959;DHT22;8078;47.822;9.402;2023-03-11T06:55:30;-0.60;99.90
15959;DHT22;8078;47.822;9.402;2023-03-11T06:57:56;-0.60;99.90
15959;DHT22;8078;47.822;9.402;2023-03-11T07:00:22;-0.70;99.90
15959;DHT22;8078;47.822;9.402;2023-03-11T07:02:48;-0.80;99.90
15959;DHT22;8078;47.822;9.402;2023-03-11T07:05:14;-0.70;99.90
15959;DHT22;8078;47.822;9.402;2023-03-11T07:07:39;-0.70;99.90
15959;DHT22;8078;47.822;9.402;2023-03-11T07:10:05;-0.70;99.90
15959;DHT22;8078;47.822;9.402;2023-03-11T07:12:31;-0.60;99.90
15959;DHT22;8078;47.822;9.402;2023-03-11T07:14:58;-0.60;99.90
15959;DHT22;8078;47.822;9.402;2023-03-11T07:17:24;-0.60;99.90
15959;DHT22;8078;47.822;9.402;2023-03-11T07:19:49;-0.50;99.90
15959;DHT22;8078;47.822;9.402;2023-03-11T07:22:15;-0.40;99.90
15959;DHT22;8078;47.822;9.402;2023-03-11T07:24:40;-0.40;99.90
15959;DHT22;8078;47.822;9.402;2023-03-11T07:27:09;-0.40;99.90
15959;DHT22;8078;47.822;9.402;2023-03-11T07:29:34;-0.40;99.90
15959;DHT22;8078;47.822;9.402;2023-03-11T07:32:00;-0.30;99.90
15959;DHT22;8078;47.822;9.402;2023-03-11T07:34:25;-0.30;99.90
15959;DHT22;8078;47.822;9.402;2023-03-11T07:36:51;-0.30;99.90
15959;DHT22;8078;47.822;9.402;2023-03-11T07:39:17;-0.30;99.90
15959;DHT22;8078;47.822;9.402;2023-03-11T07:41:43;-0.30;99.90
15959;DHT22;8078;47.822;9.402;2023-03-11T07:44:11;-0.30;99.90
15959;DHT22;8078;47.822;9.402;2023-03-11T07:46:37;-0.30;99.90
15959;DHT22;8078;47.822;9.402;2023-03-11T07:49:03;-0.30;99.90
15959;DHT22;8078;47.822;9.402;2023-03-11T07:51:31;-0.30;99.90
15959;DHT22;8078;47.822;9.402;2023-03-11T07:53:57;-0.30;99.90
15959;DHT22;8078;47.822;9.402;2023-03-11T07:56:26;-0.30;99.90
15959;DHT22;8078;47.822;9.402;2023-03-11T07:58:51;-0.20;99.90
15959;DHT22;8078;47.822;9.402;2023-03-11T08:01:22;-0.20;99.90
15959;DHT22;8078;47.822;9.402;2023-03-11T08:03:50;-0.20;99.90
15959;DHT22;8078;47.822;9.402;2023-03-11T08:06:21;-0.10;99.90
15959;DHT22;8078;47.822;9.402;2023-03-11T08:08:47;0.00;99.90
15959;DHT22;8078;47.822;9.402;2023-03-11T08:11:14;0.00;99.90
15959;DHT22;8078;47.822;9.402;2023-03-11T08:13:44;0.00;99.90
15959;DHT22;8078;47.822;9.402;2023-03-11T08:16:12;-0.10;99.90
15959;DHT22;8078;47.822;9.402;2023-03-11T08:18:37;-0.10;99.90
15959;DHT22;8078;47.822;9.402;2023-03-11T08:21:04;-0.10;99.90
15959;DHT22;8078;47.822;9.402;2023-03-11T08:23:30;0.00;99.90
15959;DHT22;8078;47.822;9.402;2023-03-11T08:25:56;0.00;99.90
15959;DHT22;8078;47.822;9.402;2023-03-11T08:28:22;0.10;99.90
15959;DHT22;8078;47.822;9.402;2023-03-11T08:30:47;0.10;99.90
15959;DHT22;8078;47.822;9.402;2023-03-11T08:33:13;0.10;99.90
15959;DHT22;8078;47.822;9.402;2023-03-11T08:35:38;0.20;99.90
15959;DHT22;8078;47.822;9.402;2023-03-11T08:38:04;0.20;99.90
15959;DHT22;8078;47.822;9.402;2023-03-11T08:40:29;0.30;99.90
15959;DHT22;8078;47.822;9.402;2023-03-11T08:42:55;0.40;99.90
15959;DHT22;8078;47.822;9.402;2023-03-11T08:45:21;0.50;99.90
15959;DHT22;8078;47.822;9.402;2023-03-11T08:47:47;0.70;99.90
15959;DHT22;8078;47.822;9.402;2023-03-11T08:50:15;0.70;99.90
15959;DHT22;8078;47.822;9.402;2023-03-11T08:52:41;0.70;99.90
15959;DHT22;8078;47.822;9.402;2023-03-11T08:55:08;0.80;99.90
15959;DHT22;8078;47.822;9.402;2023-03-11T08:57:35;1.00;99.90
15959;DHT22;8078;47.822;9.402;2023-03-11T09:00:03;1.10;99.90
15959;DHT22;8078;47.822;9.402;2023-03-11T09:02:29;1.10;99.90
15959;DHT22;8078;47.822;9.402;2023-03-11T09:04:54;1.10;99.90
15959;DHT22;8078;47.822;9.402;2023-03-11T09:07:20;0.90;99.90
15959;DHT22;8078;47.822;9.402;2023-03-11T09:09:46;0.90;99.90
15959;DHT22;8078;47.822;9.402;2023-03-11T09:12:11;1.10;99.90
15959;DHT22;8078;47.822;9.402;2023-03-11T09:14:40;1.10;99.90
15959;DHT22;8078;47.822;9.402;2023-03-11T09:17:07;1.00;99.90
15959;DHT22;8078;47.822;9.402;2023-03-11T09:19:32;1.10;99.90
15959;DHT22;8078;47.822;9.402;2023-03-11T09:22:02;1.40;99.90
15959;DHT22;8078;47.822;9.402;2023-03-11T09:24:28;1.50;99.90
15959;DHT22;8078;47.822;9.402;2023-03-11T09:26:53;1.70;99.90
15959;DHT22;8078;47.822;9.402;2023-03-11T09:29:19;1.80;99.90
15959;DHT22;8078;47.822;9.402;2023-03-11T09:31:45;1.60;99.90
15959;DHT22;8078;47.822;9.402;2023-03-11T09:34:11;1.70;99.90
15959;DHT22;8078;47.822;9.402;2023-03-11T09:36:40;1.80;99.90
15959;DHT22;8078;47.822;9.402;2023-03-11T09:39:05;1.70;99.90
15959;DHT22;8078;47.822;9.402;2023-03-11T09:41:54;1.80;99.90
15959;DHT22;8078;47.822;9.402;2023-03-11T09:50:14;1.90;99.90
15959;DHT22;8078;47.822;9.402;2023-03-11T09:52:52;2.20;99.90
15959;DHT22;8078;47.822;9.402;2023-03-11T09:55:54;2.40;99.90
15959;DHT22;8078;47.822;9.402;2023-03-11T09:58:30;2.10;99.90
15959;DHT22;8078;47.822;9.402;2023-03-11T10:00:59;2.10;99.90
15959;DHT22;8078;47.822;9.402;2023-03-11T10:03:34;2.40;99.90
15959;DHT22;8078;47.822;9.402;2023-03-11T10:06:08;2.30;99.90
15959;DHT22;8078;47.822;9.402;2023-03-11T10:22:31;3.40;99.90
15959;DHT22;8078;47.822;9.402;2023-03-11T10:25:41;2.80;99.90
15959;DHT22;8078;47.822;9.402;2023-03-11T10:28:16;2.60;99.90
15959;DHT22;8078;47.822;9.402;2023-03-11T10:30:46;2.80;99.90
15959;DHT22;8078;47.822;9.402;2023-03-11T10:33:32;3.10;99.90
15959;DHT22;8078;47.822;9.402;2023-03-11T10:36:04;3.60;99.90
15959;DHT22;8078;47.822;9.402;2023-03-11T10:38:34;3.60;99.90
15959;DHT22;8078;47.822;9.402;2023-03-11T10:44:00;3.60;99.90
15959;DHT22;8078;47.822;9.402;2023-03-11T10:46:27;4.60;99.90
15959;DHT22;8078;47.822;9.402;2023-03-11T10:48:53;4.10;99.90
15959;DHT22;8078;47.822;9.402;2023-03-11T10:51:24;4.70;99.90
15959;DHT22;8078;47.822;9.402;2023-03-11T10:53:55;5.00;99.90
15959;DHT22;8078;47.822;9.402;2023-03-11T10:58:53;5.90;99.90
15959;DHT22;8078;47.822;9.402;2023-03-11T11:01:20;5.30;99.90
15959;DHT22;8078;47.822;9.402;2023-03-11T11:03:48;6.40;99.90
15959;DHT22;8078;47.822;9.402;2023-03-11T11:06:35;6.80;99.90
15959;DHT22;8078;47.822;9.402;2023-03-11T11:09:20;7.00;99.90
15959;DHT22;8078;47.822;9.402;2023-03-11T11:12:01;5.40;99.90
15959;DHT22;8078;47.822;9.402;2023-03-11T11:15:00;5.30;99.90
15959;DHT22;8078;47.822;9.402;2023-03-11T11:17:32;5.60;99.90
15959;DHT22;8078;47.822;9.402;2023-03-11T11:20:00;4.90;99.90
15959;DHT22;8078;47.822;9.402;2023-03-11T11:22:37;5.80;99.90
15959;DHT22;8078;47.822;9.402;2023-03-11T11:25:36;6.10;99.90
15959;DHT22;8078;47.822;9.402;2023-03-11T11:28:22;4.70;99.90
15959;DHT22;8078;47.822;9.402;2023-03-11T11:31:00;4.20;99.90
15959;DHT22;8078;47.822;9.402;2023-03-11T11:33:32;4.20;99.90
15959;DHT22;8078;47.822;9.402;2023-03-11T11:36:04;4.30;99.90
15959;DHT22;8078;47.822;9.402;2023-03-11T11:38:31;4.20;99.90
15959;DHT22;8078;47.822;9.402;2023-03-11T11:41:00;3.70;99.90
15959;DHT22;8078;47.822;9.402;2023-03-11T11:49:17;3.80;99.90
15959;DHT22;8078;47.822;9.402;2023-03-11T11:57:19;3.30;99.90
15959;DHT22;8078;47.822;9.402;2023-03-11T11:59:46;3.40;99.90
15959;DHT22;8078;47.822;9.402;2023-03-11T12:05:15;3.60;99.90
15959;DHT22;8078;47.822;9.402;2023-03-11T12:10:56;4.40;99.90
15959;DHT22;8078;47.822;9.402;2023-03-11T12:13:52;5.10;99.90
15959;DHT22;8078;47.822;9.402;2023-03-11T12:19:08;6.20;99.90
15959;DHT22;8078;47.822;9.402;2023-03-11T12:24:58;3.40;99.90
15959;DHT22;8078;47.822;9.402;2023-03-11T12:27:29;3.60;99.90
15959;DHT22;8078;47.822;9.402;2023-03-11T12:30:02;4.10;99.90
15959;DHT22;8078;47.822;9.402;2023-03-11T12:32:39;4.80;99.90
15959;DHT22;8078;47.822;9.402;2023-03-11T12:35:27;4.80;99.90
15959;DHT22;8078;47.822;9.402;2023-03-11T12:38:05;4.30;99.90
15959;DHT22;8078;47.822;9.402;2023-03-11T12:46:05;4.20;99.90
15959;DHT22;8078;47.822;9.402;2023-03-11T12:48:48;4.40;99.90
15959;DHT22;8078;47.822;9.402;2023-03-11T12:57:30;3.70;99.90
15959;DHT22;8078;47.822;9.402;2023-03-11T13:10:57;3.50;99.90
15959;DHT22;8078;47.822;9.402;2023-03-11T13:18:39;2.80;99.90
15959;DHT22;8078;47.822;9.402;2023-03-11T13:23:51;2.90;99.90
15959;DHT22;8078;47.822;9.402;2023-03-11T13:26:26;2.90;99.90
15959;DHT22;8078;47.822;9.402;2023-03-11T13:31:47;3.20;99.90
15959;DHT22;8078;47.822;9.402;2023-03-11T13:34:49;3.00;99.90
15959;DHT22;8078;47.822;9.402;2023-03-11T13:37:28;3.40;99.90
15959;DHT22;8078;47.822;9.402;2023-03-11T13:42:48;4.00;99.90
15959;DHT22;8078;47.822;9.402;2023-03-11T13:47:52;4.30;99.90
15959;DHT22;8078;47.822;9.402;2023-03-11T13:50:25;4.50;99.90
15959;DHT22;8078;47.822;9.402;2023-03-11T13:52:55;5.00;99.90
15959;DHT22;8078;47.822;9.402;2023-03-11T13:57:54;5.80;99.90
15959;DHT22;8078;47.822;9.402;2023-03-11T14:00:23;5.80;99.90
15959;DHT22;8078;47.822;9.402;2023-03-11T14:05:25;5.70;99.90
15959;DHT22;8078;47.822;9.402;2023-03-11T14:07:52;5.30;99.90
15959;DHT22;8078;47.822;9.402;2023-03-11T14:12:43;5.50;99.90
15959;DHT22;8078;47.822;9.402;2023-03-11T14:15:21;5.30;99.90
15959;DHT22;8078;47.822;9.402;2023-03-11T14:17:50;5.50;99.90
15959;DHT22;8078;47.822;9.402;2023-03-11T14:20:18;5.20;99.90
15959;DHT22;8078;47.822;9.402;2023-03-11T14:22:48;5.10;99.90
15959;DHT22;8078;47.822;9.402;2023-03-11T14:25:30;4.70;99.90
15959;DHT22;8078;47.822;9.402;2023-03-11T14:27:59;4.40;99.90
15959;DHT22;8078;47.822;9.402;2023-03-11T14:30:31;4.30;99.90
15959;DHT22;8078;47.822;9.402;2023-03-11T14:32:59;4.10;99.90
15959;DHT22;8078;47.822;9.402;2023-03-11T14:35:25;4.70;99.90
15959;DHT22;8078;47.822;9.402;2023-03-11T14:37:51;4.70;99.90
15959;DHT22;8078;47.822;9.402;2023-03-11T14:40:29;4.40;99.90
15959;DHT22;8078;47.822;9.402;2023-03-11T14:43:01;4.10;99.90
15959;DHT22;8078;47.822;9.402;2023-03-11T14:45:31;4.10;99.90
15959;DHT22;8078;47.822;9.402;2023-03-11T14:48:18;3.70;99.90
15959;DHT22;8078;47.822;9.402;2023-03-11T14:50:47;3.40;99.90
15959;DHT22;8078;47.822;9.402;2023-03-11T14:53:24;3.40;99.90
15959;DHT22;8078;47.822;9.402;2023-03-11T14:56:02;3.40;99.90
15959;DHT22;8078;47.822;9.402;2023-03-11T14:58:48;3.60;99.90
15959;DHT22;8078;47.822;9.402;2023-03-11T15:01:25;3.70;99.90
15959;DHT22;8078;47.822;9.402;2023-03-11T15:03:56;4.30;99.90
15959;DHT22;8078;47.822;9.402;2023-03-11T15:06:25;4.30;99.90
15959;DHT22;8078;47.822;9.402;2023-03-11T15:08:58;4.60;99.90
15959;DHT22;8078;47.822;9.402;2023-03-11T15:11:26;4.40;99.90
15959;DHT22;8078;47.822;9.402;2023-03-11T15:13:53;4.30;99.90
15959;DHT22;8078;47.822;9.402;2023-03-11T15:16:30;4.00;99.90
15959;DHT22;8078;47.822;9.402;2023-03-11T15:18:57;3.80;99.90
15959;DHT22;8078;47.822;9.402;2023-03-11T15:21:23;3.30;99.90
15959;DHT22;8078;47.822;9.402;2023-03-11T15:24:01;3.30;99.90
15959;DHT22;8078;47.822;9.402;2023-03-11T15:26:32;3.20;99.90
15959;DHT22;8078;47.822;9.402;2023-03-11T15:29:18;3.10;99.90
15959;DHT22;8078;47.822;9.402;2023-03-11T15:31:44;2.90;99.90
15959;DHT22;8078;47.822;9.402;2023-03-11T15:34:22;2.90;99.90
15959;DHT22;8078;47.822;9.402;2023-03-11T15:44:40;2.80;99.90
15959;DHT22;8078;47.822;9.402;2023-03-11T15:47:24;2.80;99.90
15959;DHT22;8078;47.822;9.402;2023-03-11T15:49:50;2.90;99.90
15959;DHT22;8078;47.822;9.402;2023-03-11T15:52:17;3.00;99.90
15959;DHT22;8078;47.822;9.402;2023-03-11T15:54:46;3.00;99.90
15959;DHT22;8078;47.822;9.402;2023-03-11T15:57:30;2.90;99.90
15959;DHT22;8078;47.822;9.402;2023-03-11T15:59:57;2.70;99.90
15959;DHT22;8078;47.822;9.402;2023-03-11T16:02:26;2.80;99.90
15959;DHT22;8078;47.822;9.402;2023-03-11T16:04:52;2.40;99.90
15959;DHT22;8078;47.822;9.402;2023-03-11T16:07:18;2.30;99.90
15959;DHT22;8078;47.822;9.402;2023-03-11T16:09:44;2.30;99.90
15959;DHT22;8078;47.822;9.402;2023-03-11T16:12:21;2.20;99.90
15959;DHT22;8078;47.822;9.402;2023-03-11T16:14:48;2.00;99.90
15959;DHT22;8078;47.822;9.402;2023-03-11T16:17:14;2.00;99.90
15959;DHT22;8078;47.822;9.402;2023-03-11T16:19:41;2.00;99.90
15959;DHT22;8078;47.822;9.402;2023-03-11T16:22:17;2.00;99.90
15959;DHT22;8078;47.822;9.402;2023-03-11T16:24:45;2.00;99.90
15959;DHT22;8078;47.822;9.402;2023-03-11T16:27:14;2.00;99.90
15959;DHT22;8078;47.822;9.402;2023-03-11T16:29:40;2.00;99.90
15959;DHT22;8078;47.822;9.402;2023-03-11T16:32:06;2.00;99.90
15959;DHT22;8078;47.822;9.402;2023-03-11T16:34:32;2.00;99.90
15959;DHT22;8078;47.822;9.402;2023-03-11T16:36:58;2.00;99.90
15959;DHT22;8078;47.822;9.402;2023-03-11T16:39:24;1.90;99.90
15959;DHT22;8078;47.822;9.402;2023-03-11T16:41:49;1.90;99.90
15959;DHT22;8078;47.822;9.402;2023-03-11T16:44:15;1.80;99.90
15959;DHT22;8078;47.822;9.402;2023-03-11T16:46:40;1.80;99.90
15959;DHT22;8078;47.822;9.402;2023-03-11T16:49:06;1.80;99.90
15959;DHT22;8078;47.822;9.402;2023-03-11T16:51:32;1.80;99.90
15959;DHT22;8078;47.822;9.402;2023-03-11T16:54:00;1.80;99.90
15959;DHT22;8078;47.822;9.402;2023-03-11T16:56:26;1.70;99.90
15959;DHT22;8078;47.822;9.402;2023-03-11T16:58:51;1.70;99.90
15959;DHT22;8078;47.822;9.402;2023-03-11T17:01:17;1.70;99.90
15959;DHT22;8078;47.822;9.402;2023-03-11T17:03:43;1.70;99.90
15959;DHT22;8078;47.822;9.402;2023-03-11T17:06:12;1.70;99.90
15959;DHT22;8078;47.822;9.402;2023-03-11T17:08:37;1.70;99.90
15959;DHT22;8078;47.822;9.402;2023-03-11T17:11:03;1.70;99.90
15959;DHT22;8078;47.822;9.402;2023-03-11T17:13:29;1.70;99.90
15959;DHT22;8078;47.822;9.402;2023-03-11T17:16:03;1.70;99.90
15959;DHT22;8078;47.822;9.402;2023-03-11T17:18:28;1.70;99.90
15959;DHT22;8078;47.822;9.402;2023-03-11T17:20:54;1.70;99.90
15959;DHT22;8078;47.822;9.402;2023-03-11T17:23:19;1.70;99.90
15959;DHT22;8078;47.822;9.402;2023-03-11T17:25:45;1.60;99.90
15959;DHT22;8078;47.822;9.402;2023-03-11T17:28:11;1.60;99.90
15959;DHT22;8078;47.822;9.402;2023-03-11T17:30:41;1.60;99.90
15959;DHT22;8078;47.822;9.402;2023-03-11T17:33:07;1.60;99.90
15959;DHT22;8078;47.822;9.402;2023-03-11T17:35:33;1.60;99.90
15959;DHT22;8078;47.822;9.402;2023-03-11T17:37:59;1.50;99.90
15959;DHT22;8078;47.822;9.402;2023-03-11T17:40:24;1.60;99.90
15959;DHT22;8078;47.822;9.402;2023-03-11T17:42:51;1.50;99.90
15959;DHT22;8078;47.822;9.402;2023-03-11T17:45:17;1.50;99.90
15959;DHT22;8078;47.822;9.402;2023-03-11T17:47:42;1.50;99.90
15959;DHT22;8078;47.822;9.402;2023-03-11T17:50:09;1.50;99.90
15959;DHT22;8078;47.822;9.402;2023-03-11T17:52:34;1.50;99.90
15959;DHT22;8078;47.822;9.402;2023-03-11T17:55:00;1.50;99.90